KANJ

Sault Ste Marie Municipal / Sanderson Field Airport

Sault Ste Marie, Michigan, USA
METAR KANJ 152155Z AUTO 31007KT 10SM CLR 25/12 A2997 RMK AO2 SLP142 T02500122
Observed Flight Rules
Aug-15 @ 21:55 UTC (33 minutes ago) Visual Flight Rules
Wind Visibility Clouds
310° at 7 knots 10 miles
  • Clear skies
Temperatures Readings
Current 25°C / 77°F
Dewpoint 12°C / 54°F
Humidity 44%
Altimeter 29.97" Hg
Pressure 1014.2 hPa
Elevation 218
METAR KANJ 152155Z AUTO 31007KT 10SM CLR 25/12 A2997 RMK AO2 SLP142 T02500122
Observed Flight Rules
Aug-15 @ 21:55 UTC
(33 minutes ago)
VFR
Wind Visibility
310° at 7 knots 10 miles
Clouds
  • Clear skies
Temperature Dewpoint
25°C / 77°F 12°C / 54°F
Humidity Altimeter Pressure
44% 29.97" Hg 1014.2 hPa